Time;durP1;ratioP1;P1;durP2;ratioP2;P2;SDS_P1;SDS_P2;PMS_P1;PMS_P2;Temp;Humidity;BMP_temperature;BMP_pressure;BME280_temperature;BME280_humidity;BME280_pressure;Samples;Min_cycle;Max_cycle;Signal;HPM_P1;HPM_P2
2023/01/09 00:02:13;;;;;;;1.10;0.90;;;;;;;6.08;100.00;99258.00;6272414;28;20049;-70
2023/01/09 00:05:16;;;;;;;1.70;1.25;;;;;;;6.15;100.00;99258.50;6272403;28;20397;-70
2023/01/09 00:08:19;;;;;;;2.10;1.20;;;;;;;6.19;100.00;99251.34;6272324;28;20048;-72
2023/01/09 00:11:20;;;;;;;3.28;1.55;;;;;;;6.21;100.00;99249.47;6272456;28;20049;-72
2023/01/09 00:14:22;;;;;;;1.90;1.30;;;;;;;6.28;100.00;99251.63;6272078;28;20088;-72
2023/01/09 00:17:24;;;;;;;1.88;1.30;;;;;;;6.35;100.00;99244.25;6272552;28;20053;-72
2023/01/09 00:20:25;;;;;;;2.60;1.52;;;;;;;6.40;100.00;99241.38;6272035;28;20052;-72
2023/01/09 00:23:28;;;;;;;3.53;1.40;;;;;;;6.41;100.00;99230.88;6272338;28;20060;-72
2023/01/09 00:26:29;;;;;;;4.63;1.70;;;;;;;6.40;100.00;99221.34;6271793;28;20075;-72
2023/01/09 00:29:31;;;;;;;1.80;1.38;;;;;;;6.40;100.00;99220.50;6271982;28;20471;-72
2023/01/09 00:32:32;;;;;;;2.75;1.25;;;;;;;6.40;100.00;99213.50;6271808;28;20045;-73
2023/01/09 00:35:33;;;;;;;1.55;1.33;;;;;;;6.44;100.00;99208.94;6271705;28;20053;-72
2023/01/09 00:38:36;;;;;;;3.60;1.30;;;;;;;6.45;100.00;99213.22;6272064;28;20056;-72
2023/01/09 00:41:42;;;;;;;2.97;1.58;;;;;;;6.46;100.00;99209.72;6271468;28;20048;-72
2023/01/09 00:44:47;;;;;;;4.88;1.38;;;;;;;6.48;100.00;99197.38;6271895;28;20049;-72
2023/01/09 00:47:52;;;;;;;3.63;1.42;;;;;;;6.54;100.00;99208.31;6271557;28;20045;-72
2023/01/09 00:50:55;;;;;;;3.92;1.58;;;;;;;6.52;100.00;99201.50;6271542;28;20071;-72
2023/01/09 00:53:58;;;;;;;1.48;1.10;;;;;;;6.50;100.00;99204.19;6271250;28;20532;-72
2023/01/09 00:57:00;;;;;;;5.45;2.05;;;;;;;6.50;100.00;99203.38;6271617;28;20064;-72
2023/01/09 01:00:02;;;;;;;1.80;1.17;;;;;;;6.52;100.00;99196.28;6271404;28;20480;-72
2023/01/09 01:03:03;;;;;;;3.83;1.70;;;;;;;6.56;100.00;99206.44;6271494;28;20053;-72
2023/01/09 01:09:25;;;;;;;1.77;1.35;;;;;;;6.56;100.00;99195.16;6271297;28;20057;-72
2023/01/09 01:12:26;;;;;;;2.17;1.40;;;;;;;6.61;100.00;99196.53;6271196;28;20425;-72
2023/01/09 01:15:28;;;;;;;3.03;1.30;;;;;;;6.64;100.00;99197.28;6271154;28;20418;-72
2023/01/09 01:18:29;;;;;;;2.95;1.25;;;;;;;6.64;100.00;99195.53;6271332;28;20102;-72
2023/01/09 01:21:31;;;;;;;2.10;1.60;;;;;;;6.66;100.00;99185.81;6270959;28;20428;-72
2023/01/09 01:24:33;;;;;;;3.10;1.30;;;;;;;6.68;100.00;99183.13;6271165;28;20049;-72
2023/01/09 01:27:35;;;;;;;2.13;1.30;;;;;;;6.70;100.00;99176.03;6271219;28;20060;-72
2023/01/09 01:30:37;;;;;;;1.35;1.05;;;;;;;6.82;100.00;99177.88;6271024;28;20056;-72
2023/01/09 01:33:39;;;;;;;3.20;1.55;;;;;;;6.81;100.00;99176.16;6271125;28;20065;-72
2023/01/09 01:36:40;;;;;;;2.45;1.40;;;;;;;6.86;100.00;99180.19;6271104;28;20060;-72
2023/01/09 01:39:43;;;;;;;1.88;1.20;;;;;;;6.90;100.00;99180.81;6270996;28;20060;-71
2023/01/09 01:42:48;;;;;;;1.73;1.20;;;;;;;6.91;100.00;99182.50;6271050;28;20501;-72
2023/01/09 01:45:49;;;;;;;1.70;1.20;;;;;;;7.00;100.00;99184.53;6270834;28;20693;-72
2023/01/09 01:48:57;;;;;;;1.10;1.00;;;;;;;7.04;100.00;99191.25;6271074;28;20049;-72
2023/01/09 01:51:59;;;;;;;1.75;1.30;;;;;;;7.06;100.00;99185.91;6270455;28;20397;-72
2023/01/09 01:55:04;;;;;;;1.55;1.00;;;;;;;7.07;100.00;99187.59;6270975;28;20064;-72
2023/01/09 01:58:09;;;;;;;1.45;1.08;;;;;;;7.10;100.00;99187.41;6270868;28;20402;-72
2023/01/09 02:01:10;;;;;;;1.02;0.93;;;;;;;7.11;100.00;99189.06;6270898;28;20045;-72
2023/01/09 02:04:12;;;;;;;1.60;1.20;;;;;;;7.15;100.00;99180.09;6270443;28;20076;-72
2023/01/09 02:07:13;;;;;;;3.30;1.15;;;;;;;7.17;100.00;99178.22;6270719;28;20071;-72
2023/01/09 02:10:17;;;;;;;1.52;1.20;;;;;;;7.16;100.00;99194.00;6270497;28;20041;-72
2023/01/09 02:13:20;;;;;;;1.63;1.00;;;;;;;7.16;100.00;99194.84;6270550;28;20523;-72
2023/01/09 02:16:33;;;;;;;1.20;0.70;;;;;;;7.19;100.00;99199.88;6272199;28;20052;-72
2023/01/09 02:20:07;;;;;;;0.80;0.75;;;;;;;7.17;100.00;99191.28;6274959;28;20056;-72
2023/01/09 02:23:43;;;;;;;0.73;0.70;;;;;;;7.14;100.00;99190.66;6272268;28;20139;-72
2023/01/09 02:27:01;;;;;;;0.85;0.70;;;;;;;7.07;100.00;99179.75;6275187;28;20049;-72
2023/01/09 02:30:25;;;;;;;1.77;0.65;;;;;;;7.09;100.00;99170.88;6275224;28;20045;-72
2023/01/09 02:33:38;;;;;;;1.05;0.90;;;;;;;7.07;100.00;99177.97;6274927;28;20056;-73
2023/01/09 02:36:47;;;;;;;1.20;0.80;;;;;;;7.06;100.00;99171.06;6274777;28;20488;-72
2023/01/09 02:39:56;;;;;;;1.15;0.80;;;;;;;7.01;100.00;99167.94;6274906;28;20041;-73
2023/01/09 02:43:00;;;;;;;0.98;0.80;;;;;;;7.01;100.00;99172.31;6274846;28;20059;-73
2023/01/09 02:46:02;;;;;;;0.90;0.70;;;;;;;7.00;100.00;99165.44;6274258;28;20052;-72
2023/01/09 02:49:04;;;;;;;2.17;0.82;;;;;;;6.95;100.00;99159.63;6274343;28;20416;-73
2023/01/09 02:52:26;;;;;;;0.65;0.52;;;;;;;6.96;100.00;99153.50;6274069;28;20398;-73
2023/01/09 02:55:42;;;;;;;1.30;0.77;;;;;;;6.95;100.00;99154.41;6274442;28;20489;-73
2023/01/09 02:58:59;;;;;;;2.03;1.08;;;;;;;6.96;100.00;99156.09;6274506;28;20049;-72
2023/01/09 03:02:16;;;;;;;0.95;0.80;;;;;;;6.96;100.00;99150.88;6273879;28;20049;-73
2023/01/09 03:05:23;;;;;;;1.90;0.85;;;;;;;7.04;100.00;99156.44;6274014;28;20789;-72
2023/01/09 03:08:32;;;;;;;0.85;0.55;;;;;;;7.02;100.00;99160.94;6273983;28;20055;-73
2023/01/09 03:11:38;;;;;;;1.17;0.80;;;;;;;7.02;100.00;99158.31;6273718;28;20049;-73
2023/01/09 03:14:44;;;;;;;1.00;0.70;;;;;;;7.02;100.00;99166.16;6273811;28;20053;-73
2023/01/09 03:17:49;;;;;;;1.77;0.80;;;;;;;7.01;100.00;99160.09;6273682;28;20056;-73
2023/01/09 03:20:51;;;;;;;1.55;0.68;;;;;;;6.94;100.00;99164.03;6274028;28;20041;-73
2023/01/09 03:23:55;;;;;;;1.65;0.70;;;;;;;6.97;100.00;99165.59;6273348;28;20049;-73
2023/01/09 03:26:57;;;;;;;2.05;0.73;;;;;;;6.92;100.00;99167.69;6273112;28;20060;-73
2023/01/09 03:29:58;;;;;;;1.00;0.38;;;;;;;6.86;100.00;99163.69;6272850;28;20048;-73
2023/01/09 03:33:01;;;;;;;0.30;0.30;;;;;;;6.81;100.00;99161.38;6273615;28;20053;-73
2023/01/09 03:36:03;;;;;;;0.47;0.30;;;;;;;6.74;100.00;99167.06;6273151;28;20056;-73
2023/01/09 03:39:04;;;;;;;0.95;0.40;;;;;;;6.74;100.00;99165.28;6273190;28;20045;-74
2023/01/09 03:42:05;;;;;;;1.38;0.52;;;;;;;6.75;100.00;99159.13;6272899;28;20072;-73
2023/01/09 03:45:07;;;;;;;0.25;0.25;;;;;;;6.73;100.00;99168.00;6272919;28;20049;-73
2023/01/09 03:48:10;;;;;;;0.10;0.10;;;;;;;6.69;100.00;99162.13;6272178;28;20049;-73
2023/01/09 03:51:11;;;;;;;0.40;0.30;;;;;;;6.69;100.00;99161.31;6272596;28;20056;-73
2023/01/09 03:54:13;;;;;;;0.50;0.30;;;;;;;6.66;100.00;99164.94;6272589;28;20048;-73
2023/01/09 03:57:14;;;;;;;0.28;0.28;;;;;;;6.63;100.00;99166.88;6272993;28;20049;-74
2023/01/09 04:00:16;;;;;;;0.10;0.10;;;;;;;6.62;100.00;99168.66;6272572;28;20052;-73
2023/01/09 04:03:20;;;;;;;0.20;0.20;;;;;;;6.57;100.00;99158.50;6272844;28;20045;-74
2023/01/09 04:06:21;;;;;;;0.20;0.20;;;;;;;6.56;100.00;99146.41;6272419;28;20060;-74
2023/01/09 04:09:23;;;;;;;0.20;0.20;;;;;;;6.55;100.00;99151.72;6272707;28;20489;-74
2023/01/09 04:12:24;;;;;;;0.20;0.20;;;;;;;6.53;100.00;99149.19;6272343;28;20045;-74
2023/01/09 04:15:26;;;;;;;0.10;0.10;;;;;;;6.51;100.00;99150.25;6272265;28;20496;-74
2023/01/09 04:18:28;;;;;;;0.13;0.13;;;;;;;6.51;100.00;99150.25;6272414;28;20060;-74
2023/01/09 04:21:30;;;;;;;0.20;0.20;;;;;;;6.50;100.00;99143.34;6271948;28;20047;-74
2023/01/09 04:24:31;;;;;;;0.75;0.40;;;;;;;6.48;100.00;99146.03;6272245;28;20055;-73
2023/01/09 04:27:32;;;;;;;0.30;0.30;;;;;;;6.45;100.00;99148.00;6272039;28;20048;-73
2023/01/09 04:30:34;;;;;;;0.20;0.20;;;;;;;6.45;100.00;99143.63;6271865;28;20068;-73
2023/01/09 04:33:36;;;;;;;0.45;0.30;;;;;;;6.47;100.00;99146.13;6271982;28;20520;-74
2023/01/09 04:36:38;;;;;;;0.95;0.22;;;;;;;6.51;100.00;99158.06;6271883;28;20058;-73
2023/01/09 04:39:43;;;;;;;0.35;0.35;;;;;;;6.46;100.00;99160.97;6271594;28;20081;-73
2023/01/09 04:42:44;;;;;;;0.30;0.30;;;;;;;6.46;100.00;99158.34;6271915;28;20098;-73
2023/01/09 04:45:45;;;;;;;0.68;0.15;;;;;;;6.44;100.00;99164.59;6271761;28;20070;-73
2023/01/09 04:48:48;;;;;;;2.10;0.30;;;;;;;6.46;100.00;99168.78;6271591;28;20060;-73
2023/01/09 04:51:49;;;;;;;0.57;0.38;;;;;;;6.49;100.00;99180.78;6271404;28;20041;-71
2023/01/09 04:54:51;;;;;;;0.43;0.35;;;;;;;6.49;100.00;99181.63;6271511;28;20511;-74
2023/01/09 04:57:52;;;;;;;0.38;0.15;;;;;;;6.52;100.00;99188.44;6271698;28;20055;-73
2023/01/09 05:00:54;;;;;;;0.40;0.25;;;;;;;6.48;100.00;99184.34;6271398;28;20044;-73
2023/01/09 05:03:56;;;;;;;0.30;0.20;;;;;;;6.48;100.00;99186.94;6262342;28;20061;-73
2023/01/09 05:06:58;;;;;;;0.50;0.28;;;;;;;6.48;100.00;99195.63;6260459;28;20053;-73
2023/01/09 05:09:59;;;;;;;0.95;0.32;;;;;;;6.48;100.00;99198.22;6258785;28;20389;-73
2023/01/09 05:13:00;;;;;;;2.40;0.40;;;;;;;6.50;100.00;99190.31;6266043;28;20052;-73
2023/01/09 05:16:02;;;;;;;0.40;0.35;;;;;;;6.55;100.00;99193.47;6271486;28;20060;-73
2023/01/09 05:19:04;;;;;;;0.13;0.13;;;;;;;6.57;100.00;99199.44;6268684;28;20053;-73
2023/01/09 05:22:06;;;;;;;0.35;0.30;;;;;;;6.57;100.00;99194.22;6258325;28;20049;-73
2023/01/09 05:25:08;;;;;;;0.30;0.20;;;;;;;6.64;100.00;99211.19;6271092;28;20416;-73
2023/01/09 05:28:09;;;;;;;0.25;0.25;;;;;;;6.66;100.00;99219.75;6271258;28;20048;-74
2023/01/09 05:31:10;;;;;;;0.93;0.63;;;;;;;6.65;100.00;99236.34;6271152;28;20041;-73
2023/01/09 05:34:13;;;;;;;0.35;0.35;;;;;;;6.69;100.00;99242.22;6270871;28;20064;-73
2023/01/09 05:37:14;;;;;;;0.47;0.35;;;;;;;6.69;100.00;99239.63;6271154;28;20420;-73
2023/01/09 05:40:16;;;;;;;0.60;0.50;;;;;;;6.64;100.00;99242.50;6270897;28;20064;-73
2023/01/09 05:43:17;;;;;;;0.35;0.35;;;;;;;6.66;100.00;99240.63;6259608;28;20045;-73
2023/01/09 05:46:19;;;;;;;0.50;0.50;;;;;;;6.63;100.00;99248.63;6268136;28;20071;-73
2023/01/09 05:49:21;;;;;;;0.77;0.43;;;;;;;6.66;100.00;99248.47;6271264;28;20053;-73
2023/01/09 05:52:23;;;;;;;0.40;0.40;;;;;;;6.67;100.00;99241.47;6274096;28;20124;-73
2023/01/09 05:55:24;;;;;;;1.25;0.65;;;;;;;6.63;100.00;99246.03;6275498;28;20053;-73
2023/01/09 05:58:26;;;;;;;1.48;0.90;;;;;;;6.67;100.00;99247.53;6275796;28;20049;-73
2023/01/09 06:01:27;;;;;;;0.90;0.73;;;;;;;6.61;100.00;99260.94;6267225;28;20082;-73
2023/01/09 06:04:30;;;;;;;1.27;0.68;;;;;;;6.59;100.00;99255.00;6264189;28;20041;-74
2023/01/09 06:07:35;;;;;;;1.17;0.80;;;;;;;6.50;100.00;99255.56;6267071;28;20072;-73
2023/01/09 06:10:36;;;;;;;0.82;0.70;;;;;;;6.54;100.00;99264.84;6275268;28;20050;-73
2023/01/09 06:13:37;;;;;;;1.08;0.88;;;;;;;6.49;100.00;99270.34;6275300;28;20045;-73
2023/01/09 06:16:39;;;;;;;1.23;0.98;;;;;;;6.49;100.00;99282.56;6275241;28;20053;-72
2023/01/09 06:19:41;;;;;;;1.33;0.88;;;;;;;6.46;100.00;99277.56;6275022;28;20052;-73
2023/01/09 06:22:44;;;;;;;0.50;0.50;;;;;;;6.45;100.00;99288.91;6254413;28;20515;-73
2023/01/09 06:25:45;;;;;;;0.95;0.60;;;;;;;6.38;100.00;99291.03;6260784;28;20055;-73
2023/01/09 06:28:46;;;;;;;1.35;0.93;;;;;;;6.34;100.00;99297.38;6265499;28;20053;-73
2023/01/09 06:31:48;;;;;;;2.47;1.05;;;;;;;6.24;100.00;99304.06;6267369;28;20049;-73
2023/01/09 06:34:50;;;;;;;1.65;1.20;;;;;;;6.17;100.00;99306.19;6272594;28;20052;-73
2023/01/09 06:37:52;;;;;;;4.40;1.33;;;;;;;6.11;100.00;99301.34;6266456;28;20053;-73
2023/01/09 06:40:53;;;;;;;1.98;1.30;;;;;;;6.09;100.00;99304.03;6268342;28;20049;-73
2023/01/09 06:43:54;;;;;;;2.30;1.40;;;;;;;6.05;100.00;99314.75;6249336;28;20045;-73
2023/01/09 06:46:56;;;;;;;4.72;1.92;;;;;;;6.05;100.00;99309.53;6249643;28;20398;-73
2023/01/09 06:49:58;;;;;;;3.55;1.40;;;;;;;6.01;100.00;99311.47;6249194;28;20056;-73
2023/01/09 06:53:00;;;;;;;3.30;1.85;;;;;;;5.96;100.00;99320.47;6247863;28;20049;-73
2023/01/09 06:56:02;;;;;;;3.63;1.35;;;;;;;5.90;100.00;99329.44;6247938;28;20046;-74
2023/01/09 06:59:03;;;;;;;1.63;1.15;;;;;;;5.89;100.00;99326.94;6247915;28;20073;-73
2023/01/09 07:02:04;;;;;;;4.47;1.45;;;;;;;5.96;100.00;99333.53;6247178;28;20041;-73
2023/01/09 07:05:10;;;;;;;4.75;2.00;;;;;;;5.90;100.00;99341.63;6247711;28;20052;-73
2023/01/09 07:08:11;;;;;;;2.30;1.50;;;;;;;5.89;100.00;99338.19;6247822;28;20128;-71
2023/01/09 07:11:13;;;;;;;4.45;2.20;;;;;;;5.81;100.00;99336.03;6247746;28;20069;-71
2023/01/09 07:14:14;;;;;;;8.93;2.17;;;;;;;5.76;100.00;99339.81;6247226;28;20045;-71
2023/01/09 07:17:15;;;;;;;5.90;2.22;;;;;;;5.79;100.00;99350.06;6247480;28;20049;-71
2023/01/09 07:20:19;;;;;;;7.78;2.00;;;;;;;5.78;100.00;99354.44;6247202;28;20041;-71
2023/01/09 07:23:20;;;;;;;4.25;1.63;;;;;;;5.82;100.00;99355.13;6244523;28;20080;-71
2023/01/09 07:26:21;;;;;;;3.88;1.83;;;;;;;5.76;100.00;99365.88;6246982;28;20052;-71
2023/01/09 07:29:23;;;;;;;4.88;2.30;;;;;;;5.74;100.00;99365.13;6247425;28;20056;-73
2023/01/09 07:32:24;;;;;;;6.88;1.90;;;;;;;5.70;100.00;99367.06;6246789;28;20046;-73
2023/01/09 07:35:26;;;;;;;3.75;2.17;;;;;;;5.63;100.00;99372.69;6246735;28;20441;-73
2023/01/09 07:38:28;;;;;;;2.10;1.40;;;;;;;5.62;100.00;99378.84;6247086;28;20045;-73
2023/01/09 07:41:29;;;;;;;2.90;1.52;;;;;;;5.57;100.00;99376.47;6246631;28;20417;-73
2023/01/09 07:44:30;;;;;;;5.40;2.78;;;;;;;5.50;100.00;99386.41;6247104;28;20049;-73
2023/01/09 07:47:32;;;;;;;4.10;2.08;;;;;;;5.51;100.00;99384.63;6246645;28;20053;-73
2023/01/09 07:50:34;;;;;;;5.47;2.17;;;;;;;5.52;100.00;99381.09;6247049;28;20436;-73
2023/01/09 07:53:36;;;;;;;2.67;1.67;;;;;;;5.46;100.00;99389.25;6246434;28;20051;-73
2023/01/09 07:56:37;;;;;;;3.88;2.50;;;;;;;5.42;100.00;99399.00;6246502;28;20052;-73
2023/01/09 07:59:38;;;;;;;7.00;2.22;;;;;;;5.42;100.00;99405.97;6246315;28;20057;-73
2023/01/09 08:02:40;;;;;;;6.78;1.95;;;;;;;5.44;100.00;99419.75;6246349;28;20049;-73
2023/01/09 08:05:42;;;;;;;5.47;2.28;;;;;;;5.32;100.00;99413.44;6246095;28;20394;-71
2023/01/09 08:08:44;;;;;;;7.05;2.97;;;;;;;5.30;100.00;99413.50;6246059;28;20048;-71
2023/01/09 08:11:45;;;;;;;5.05;2.30;;;;;;;5.31;100.00;99414.34;6245927;28;20049;-71
2023/01/09 08:14:46;;;;;;;11.70;2.90;;;;;;;5.42;100.00;99417.25;6245156;28;20453;-71
2023/01/09 08:17:48;;;;;;;7.05;2.50;;;;;;;5.41;100.00;99415.56;6246576;28;20057;-70
2023/01/09 08:20:51;;;;;;;5.28;2.65;;;;;;;5.40;100.00;99431.25;6245835;28;20054;-70
2023/01/09 08:23:52;;;;;;;5.40;2.97;;;;;;;5.37;100.00;99426.22;6245738;28;20545;-71
2023/01/09 08:26:53;;;;;;;4.05;2.35;;;;;;;5.39;100.00;99425.22;6239841;28;20056;-68
2023/01/09 08:29:54;;;;;;;7.35;2.80;;;;;;;5.47;100.00;99436.06;6250536;28;20511;-68
2023/01/09 08:32:56;;;;;;;4.40;2.78;;;;;;;5.53;100.00;99434.88;6250679;28;20053;-69
2023/01/09 08:35:58;;;;;;;10.60;3.17;;;;;;;5.54;100.00;99436.56;6245568;28;20049;-68
2023/01/09 08:39:00;;;;;;;8.55;2.65;;;;;;;5.51;100.00;99434.16;6245615;28;20053;-68
2023/01/09 08:48:39;;;;;;;6.85;3.22;;;;;;;5.52;100.00;99438.44;6245573;28;20053;-69
2023/01/09 08:51:42;;;;;;;10.63;3.13;;;;;;;5.50;100.00;99437.69;6245694;28;20045;-69
2023/01/09 08:54:43;;;;;;;6.25;2.70;;;;;;;5.54;100.00;99441.78;6245557;28;20498;-69
2023/01/09 08:57:48;;;;;;;8.65;3.78;;;;;;;5.51;100.00;99444.56;6245551;28;20053;-69
2023/01/09 09:00:49;;;;;;;5.85;3.00;;;;;;;5.56;100.00;99440.78;6245461;28;20041;-69
2023/01/09 09:03:50;;;;;;;8.95;3.33;;;;;;;5.57;100.00;99439.84;6245183;28;20054;-69
2023/01/09 09:06:53;;;;;;;6.07;3.05;;;;;;;5.58;100.00;99435.47;6245653;28;20054;-70
2023/01/09 09:09:54;;;;;;;5.30;2.80;;;;;;;5.62;100.00;99443.97;6246439;28;20052;-70
2023/01/09 09:12:57;;;;;;;12.88;4.53;;;;;;;5.65;100.00;99436.84;6246631;28;20056;-70
2023/01/09 09:15:59;;;;;;;7.82;3.10;;;;;;;5.68;100.00;99441.03;6246274;28;20080;-70
2023/01/09 09:19:00;;;;;;;6.00;2.85;;;;;;;5.75;100.00;99432.81;6246715;28;20057;-70
2023/01/09 09:22:02;;;;;;;9.52;3.35;;;;;;;5.73;100.00;99431.22;6246258;28;20497;-70
2023/01/09 09:25:04;;;;;;;10.45;3.22;;;;;;;5.77;100.00;99435.34;6246496;28;20054;-70
2023/01/09 09:28:07;;;;;;;6.40;2.80;;;;;;;5.76;100.00;99444.91;6251270;28;20049;-70
2023/01/09 09:31:08;;;;;;;7.80;3.55;;;;;;;5.73;100.00;99450.31;6251011;28;20065;-69
2023/01/09 09:34:11;;;;;;;5.93;3.28;;;;;;;5.73;100.00;99455.53;6251229;28;20049;-69
2023/01/09 09:37:14;;;;;;;5.80;3.13;;;;;;;5.74;100.00;99459.81;6251252;28;20060;-70
2023/01/09 09:40:19;;;;;;;5.95;3.00;;;;;;;5.79;100.00;99463.00;6251197;28;20064;-69
2023/01/09 09:47:06;;;;;;;4.97;2.70;;;;;;;5.93;100.00;99454.47;6226550;28;20422;-69
2023/01/09 09:50:22;;;;;;;7.70;2.78;;;;;;;5.99;100.00;99453.28;6226553;28;20054;-69
2023/01/09 09:53:29;;;;;;;10.27;2.80;;;;;;;6.04;100.00;99453.84;6226548;28;20064;-69
2023/01/09 09:56:36;;;;;;;4.82;2.50;;;;;;;6.07;100.00;99464.13;6226401;28;20061;-69
2023/01/09 09:59:38;;;;;;;7.50;3.00;;;;;;;6.14;100.00;99455.03;6226245;28;20054;-69
2023/01/09 10:02:45;;;;;;;4.78;2.50;;;;;;;6.17;100.00;99456.63;6226215;28;20053;-70
2023/01/09 10:05:50;;;;;;;5.82;1.92;;;;;;;6.22;100.00;99465.91;6226149;28;20053;-69
2023/01/09 10:08:57;;;;;;;7.85;1.85;;;;;;;6.26;100.00;99454.34;6226287;28;20513;-69
2023/01/09 10:12:04;;;;;;;3.45;1.83;;;;;;;6.32;100.00;99456.63;6225687;28;20054;-69
2023/01/09 10:15:16;;;;;;;6.90;1.60;;;;;;;6.35;100.00;99453.81;6226072;28;20490;-69
2023/01/09 10:18:29;;;;;;;4.88;1.70;;;;;;;6.39;100.00;99445.81;6225889;28;20497;-71
2023/01/09 10:21:39;;;;;;;1.88;1.23;;;;;;;6.45;100.00;99446.34;6225762;28;20046;-68
2023/01/09 10:24:57;;;;;;;1.75;1.00;;;;;;;6.50;100.00;99449.50;6225586;28;20057;-70
2023/01/09 10:28:16;;;;;;;3.28;1.30;;;;;;;6.64;100.00;99458.31;6240308;28;20053;-69
2023/01/09 10:31:28;;;;;;;5.53;1.52;;;;;;;6.66;100.00;99451.22;6249780;28;20053;-69
2023/01/09 10:34:42;;;;;;;4.82;1.30;;;;;;;6.71;100.00;99457.84;6249988;28;20049;-70
2023/01/09 10:37:46;;;;;;;4.25;1.48;;;;;;;6.80;100.00;99459.09;6249433;28;20505;-70
2023/01/09 10:40:54;;;;;;;2.15;1.23;;;;;;;6.80;100.00;99459.94;6249661;28;20049;-70
2023/01/09 10:44:01;;;;;;;3.47;0.90;;;;;;;6.89;100.00;99458.56;6249562;28;20057;-70
2023/01/09 10:47:05;;;;;;;1.42;1.13;;;;;;;6.85;100.00;99463.09;6249811;28;20053;-70
2023/01/09 10:50:20;;;;;;;2.78;1.17;;;;;;;6.84;100.00;99468.44;6249413;28;20060;-69
2023/01/09 10:53:26;;;;;;;0.85;0.85;;;;;;;6.89;100.00;99457.72;6249758;28;20496;-69
2023/01/09 10:56:34;;;;;;;6.25;1.20;;;;;;;6.92;100.00;99461.00;6249238;28;20420;-71
2023/01/09 10:59:35;;;;;;;3.35;1.13;;;;;;;6.90;100.00;99455.00;6249593;28;20057;-71
2023/01/09 11:02:36;;;;;;;2.10;1.25;;;;;;;6.98;100.00;99447.56;6249213;28;20057;-69
2023/01/09 11:05:38;;;;;;;3.30;0.82;;;;;;;7.01;100.00;99451.78;6249060;28;20057;-67
2023/01/09 11:08:43;;;;;;;1.02;0.73;;;;;;;7.09;100.00;99450.41;6247482;28;20061;-69
2023/01/09 11:11:46;;;;;;;1.75;0.70;;;;;;;7.14;100.00;99446.66;6247197;28;20132;-70
2023/01/09 11:14:47;;;;;;;1.45;0.52;;;;;;;7.15;100.00;99441.34;6247179;28;20425;-69
2023/01/09 11:17:51;;;;;;;1.13;0.82;;;;;;;7.11;100.00;99445.91;6247441;28;20045;-69
2023/01/09 11:20:52;;;;;;;2.47;0.75;;;;;;;7.15;100.00;99446.56;6246875;28;20440;-69
2023/01/09 11:23:54;;;;;;;1.67;0.77;;;;;;;7.19;100.00;99442.00;6247285;28;20052;-69
2023/01/09 11:27:22;;;;;;;1.00;0.77;;;;;;;7.24;100.00;99439.94;6254776;28;20524;-69
2023/01/09 11:30:25;;;;;;;0.98;0.47;;;;;;;7.30;100.00;99429.13;6273221;28;20045;-69
2023/01/09 11:33:29;;;;;;;1.23;0.57;;;;;;;7.29;100.00;99424.81;6273249;28;20110;-69
2023/01/09 11:36:31;;;;;;;3.20;0.90;;;;;;;7.32;100.00;99427.25;6248754;28;20054;-68
2023/01/09 11:39:36;;;;;;;4.53;0.70;;;;;;;7.42;100.00;99436.22;6248512;28;20046;-71
2023/01/09 11:42:51;;;;;;;3.35;0.68;;;;;;;7.50;100.00;99433.97;6248125;28;20483;-69
2023/01/09 11:45:56;;;;;;;0.57;0.55;;;;;;;7.65;100.00;99442.63;6247883;28;20054;-68
2023/01/09 11:48:58;;;;;;;3.65;0.93;;;;;;;7.73;100.00;99429.94;6247275;28;20136;-68
2023/01/09 11:52:15;;;;;;;4.18;0.90;;;;;;;7.80;100.00;99430.38;6247807;28;20052;-68
2023/01/09 11:55:19;;;;;;;3.50;0.82;;;;;;;7.82;100.00;99433.75;6248305;28;20049;-67
2023/01/09 11:58:22;;;;;;;1.60;0.93;;;;;;;7.76;100.00;99439.34;6247870;28;20053;-69
2023/01/09 12:01:56;;;;;;;0.75;0.57;;;;;;;7.73;100.00;99447.41;6247029;28;20498;-69
2023/01/09 12:05:01;;;;;;;1.20;0.75;;;;;;;7.66;100.00;99433.84;6231513;28;20068;-69
2023/01/09 12:08:20;;;;;;;2.35;0.80;;;;;;;7.67;100.00;99440.75;6246831;28;20053;-69
2023/01/09 12:11:36;;;;;;;6.53;1.00;;;;;;;7.58;100.00;99434.31;6244886;28;20053;-70
2023/01/09 12:14:52;;;;;;;1.05;0.60;;;;;;;7.46;100.00;99437.72;6260286;28;20053;-69
2023/01/09 12:18:25;;;;;;;1.42;0.50;;;;;;;7.48;100.00;99437.59;6223169;28;20046;-69
2023/01/09 12:21:33;;;;;;;1.65;0.75;;;;;;;7.35;100.00;99433.13;6239243;28;20041;-70
2023/01/09 12:25:06;;;;;;;1.83;0.97;;;;;;;7.29;100.00;99436.13;6263665;28;20045;-70
2023/01/09 12:28:31;;;;;;;2.17;0.65;;;;;;;7.22;100.00;99440.06;6244614;28;20045;-69
2023/01/09 12:31:46;;;;;;;2.55;1.10;;;;;;;7.25;100.00;99437.22;6231326;28;20072;-69
2023/01/09 12:34:58;;;;;;;4.45;0.80;;;;;;;7.20;100.00;99431.44;6248234;28;20061;-69
2023/01/09 12:38:11;;;;;;;0.45;0.43;;;;;;;7.22;100.00;99429.59;6263452;28;20053;-69
2023/01/09 12:41:29;;;;;;;1.35;0.77;;;;;;;7.22;100.00;99416.53;6271718;28;20056;-69
2023/01/09 12:44:52;;;;;;;1.02;0.60;;;;;;;7.23;100.00;99414.75;6271639;28;20045;-69
2023/01/09 12:48:02;;;;;;;3.08;0.82;;;;;;;7.31;100.00;99422.94;6271757;28;20044;-70
2023/01/09 12:51:16;;;;;;;2.38;0.77;;;;;;;7.32;100.00;99409.81;6271248;28;20052;-69
2023/01/09 12:54:25;;;;;;;1.10;0.75;;;;;;;7.30;100.00;99421.28;6271274;28;20396;-69
2023/01/09 12:57:31;;;;;;;1.47;1.00;;;;;;;7.32;100.00;99424.66;6271513;28;20512;-69
2023/01/09 13:00:37;;;;;;;2.22;0.70;;;;;;;7.36;100.00;99426.97;6271232;28;20291;-69
2023/01/09 13:03:47;;;;;;;0.73;0.73;;;;;;;7.32;100.00;99427.25;6271461;28;20048;-70
2023/01/09 13:06:55;;;;;;;5.22;0.75;;;;;;;7.32;100.00;99430.72;6271469;28;20057;-70
2023/01/09 13:10:02;;;;;;;5.25;0.65;;;;;;;7.33;100.00;99426.31;6271080;28;20049;-70
2023/01/09 13:13:09;;;;;;;2.03;1.38;;;;;;;7.33;100.00;99432.38;6271194;28;20049;-70
2023/01/09 13:16:14;;;;;;;2.50;0.90;;;;;;;7.43;100.00;99431.81;6271407;28;20056;-70
2023/01/09 13:19:23;;;;;;;0.70;0.70;;;;;;;7.41;100.00;99439.75;6271319;28;20056;-70
2023/01/09 13:22:27;;;;;;;1.20;0.82;;;;;;;7.42;100.00;99436.22;6271203;28;20056;-70
2023/01/09 13:25:43;;;;;;;2.08;0.95;;;;;;;7.37;100.00;99431.25;6271059;28;20061;-70
2023/01/09 13:28:49;;;;;;;2.28;1.05;;;;;;;7.40;100.00;99442.44;6271243;28;20126;-69
2023/01/09 13:32:06;;;;;;;2.13;1.10;;;;;;;7.37;100.00;99443.50;6270745;28;20053;-69
2023/01/09 13:35:14;;;;;;;1.30;1.20;;;;;;;7.40;100.00;99448.53;6257993;28;20056;-70
2023/01/09 13:38:18;;;;;;;3.78;0.98;;;;;;;7.32;100.00;99456.84;6246188;28;20413;-71
2023/01/09 13:44:39;;;;;;;0.88;0.88;;;;;;;7.16;100.00;99453.47;6245959;28;20101;-70
2023/01/09 13:47:41;;;;;;;1.20;0.80;;;;;;;7.04;100.00;99462.88;6246346;28;20053;-70
2023/01/09 13:50:45;;;;;;;6.13;1.42;;;;;;;7.01;100.00;99459.63;6246039;28;20049;-70
2023/01/09 13:53:48;;;;;;;1.63;1.15;;;;;;;6.98;100.00;99467.63;6246024;28;20489;-69
2023/01/09 13:57:24;;;;;;;3.90;1.60;;;;;;;6.96;100.00;99464.28;6246033;28;20421;-70
2023/01/09 14:00:55;;;;;;;2.05;1.40;;;;;;;6.89;100.00;99466.38;6245938;28;20244;-70
2023/01/09 14:04:35;;;;;;;7.55;1.50;;;;;;;6.87;100.00;99476.09;6245708;28;20045;-71
2023/01/09 14:07:40;;;;;;;2.10;1.45;;;;;;;6.84;100.00;99482.31;6245817;28;20675;-71
2023/01/09 14:10:49;;;;;;;1.27;1.13;;;;;;;6.87;100.00;99483.94;6246318;28;20053;-70
2023/01/09 14:14:05;;;;;;;1.40;1.30;;;;;;;6.80;100.00;99506.94;6250270;28;20445;-70
2023/01/09 14:17:16;;;;;;;1.88;1.45;;;;;;;6.80;100.00;99506.09;6250889;28;20119;-69
2023/01/09 14:20:27;;;;;;;3.22;1.35;;;;;;;6.77;100.00;99512.34;6250379;28;20501;-73
2023/01/09 14:23:33;;;;;;;1.20;0.98;;;;;;;6.79;100.00;99510.47;6250897;28;20486;-71
2023/01/09 14:26:46;;;;;;;1.65;1.13;;;;;;;6.80;100.00;99524.38;6251005;28;20056;-72
2023/01/09 14:29:47;;;;;;;1.95;1.35;;;;;;;6.81;100.00;99526.03;6250780;28;20053;-72
2023/01/09 14:32:56;;;;;;;2.85;1.20;;;;;;;6.79;100.00;99525.31;6250475;28;20188;-70
2023/01/09 14:36:08;;;;;;;4.32;1.20;;;;;;;6.75;100.00;99535.06;6250101;28;20053;-70
2023/01/09 14:39:13;;;;;;;5.65;1.52;;;;;;;6.77;100.00;99535.00;6249960;28;20049;-70
2023/01/09 14:42:21;;;;;;;2.22;1.60;;;;;;;6.80;100.00;99545.25;6258834;23;20053;-72
2023/01/09 14:45:26;;;;;;;2.13;1.42;;;;;;;6.80;100.00;99547.88;6224653;28;20041;-72
2023/01/09 14:48:29;;;;;;;1.50;1.40;;;;;;;6.76;100.00;99557.63;6225276;28;20042;-72
2023/01/09 14:51:35;;;;;;;3.30;2.00;;;;;;;6.77;100.00;99569.78;6224716;28;20045;-72